Time;durP1;ratioP1;P1;durP2;ratioP2;P2;SDS_P1;SDS_P2;PMS_P1;PMS_P2;Temp;Humidity;BMP_temperature;BMP_pressure;BME280_temperature;BME280_humidity;BME280_pressure;Samples;Min_cycle;Max_cycle;Signal;HPM_P1;HPM_P2
2023/03/31 00:03:47;;;;;;;12.23;2.37;;;;;10.90;99827.00;;;;10525480;27;20750;-81
2023/03/31 00:08:50;;;;;;;15.70;3.30;;;;;10.90;99834.00;;;;10531698;28;20201;-81
2023/03/31 00:13:53;;;;;;;14.87;2.13;;;;;10.90;99826.00;;;;10544380;27;20204;-81
2023/03/31 00:18:55;;;;;;;14.00;3.00;;;;;10.90;99818.00;;;;10528656;27;20820;-81
2023/03/31 00:24:00;;;;;;;14.17;3.03;;;;;10.90;99813.00;;;;10503755;28;20266;-81
2023/03/31 00:29:07;;;;;;;12.73;2.70;;;;;10.90;99819.00;;;;10492394;28;20671;-80
2023/03/31 00:34:09;;;;;;;9.83;2.63;;;;;10.90;99805.00;;;;10484046;28;20284;-80
2023/03/31 00:39:13;;;;;;;9.37;2.27;;;;;10.90;99798.00;;;;10568925;27;20192;-80
2023/03/31 00:44:23;;;;;;;12.13;2.90;;;;;10.80;99797.00;;;;10532676;27;20228;-80
2023/03/31 00:49:33;;;;;;;9.13;2.83;;;;;10.70;99791.00;;;;10506843;28;20254;-80
2023/03/31 00:54:35;;;;;;;13.17;2.60;;;;;10.60;99765.00;;;;10519833;28;20197;-80
2023/03/31 00:59:45;;;;;;;12.43;2.87;;;;;10.60;99754.00;;;;10534699;27;20192;-79
2023/03/31 01:04:53;;;;;;;16.00;3.13;;;;;10.50;99730.00;;;;10505248;28;20273;-80
2023/03/31 01:10:01;;;;;;;10.67;2.80;;;;;10.50;99718.00;;;;10505964;27;20257;-79
2023/03/31 01:15:04;;;;;;;12.60;2.73;;;;;10.50;99691.00;;;;10496451;28;20715;-79
2023/03/31 01:20:10;;;;;;;12.07;2.67;;;;;10.50;99669.00;;;;10524372;27;20230;-79
2023/03/31 01:25:41;;;;;;;19.17;2.70;;;;;10.40;99661.00;;;;10512066;28;20300;-79
2023/03/31 01:31:15;;;;;;;11.20;2.30;;;;;10.30;99635.00;;;;10510644;28;21027;-79
2023/03/31 01:36:54;;;;;;;9.73;2.70;;;;;10.30;99628.00;;;;10530107;28;20196;-80
2023/03/31 01:42:05;;;;;;;11.70;2.30;;;;;10.30;99610.00;;;;10513314;28;20213;-80
2023/03/31 01:47:39;;;;;;;8.67;2.10;;;;;10.30;99575.00;;;;10485279;28;20230;-80
2023/03/31 01:53:00;;;;;;;16.37;2.63;;;;;10.40;99554.00;;;;10514172;28;20196;-80
2023/03/31 01:58:22;;;;;;;8.77;2.17;;;;;10.30;99543.00;;;;10519785;28;20207;-80
2023/03/31 02:03:29;;;;;;;11.27;2.53;;;;;10.30;99527.00;;;;10558027;28;20247;-80
2023/03/31 02:08:37;;;;;;;9.90;2.27;;;;;10.30;99506.00;;;;10501991;28;20201;-80
2023/03/31 02:13:43;;;;;;;10.20;2.37;;;;;10.30;99489.00;;;;10541980;28;20200;-81
2023/03/31 02:18:47;;;;;;;9.13;2.33;;;;;10.30;99474.00;;;;10530090;28;20200;-80
2023/03/31 02:23:50;;;;;;;11.73;2.20;;;;;10.20;99461.00;;;;10534664;28;20544;-79
2023/03/31 02:28:53;;;;;;;9.77;2.10;;;;;10.10;99447.00;;;;10537007;28;20207;-80
2023/03/31 02:33:55;;;;;;;8.53;1.90;;;;;10.10;99425.00;;;;10537154;27;20249;-80
2023/03/31 02:39:04;;;;;;;7.33;2.27;;;;;10.10;99425.00;;;;10521149;28;20959;-80
2023/03/31 02:44:06;;;;;;;6.57;1.57;;;;;10.10;99407.00;;;;10527796;27;20216;-80
2023/03/31 02:49:10;;;;;;;8.83;2.27;;;;;10.10;99389.00;;;;10512501;28;20274;-81
2023/03/31 02:54:36;;;;;;;8.73;2.63;;;;;10.10;99394.00;;;;10532574;28;20220;-80
2023/03/31 03:00:13;;;;;;;7.23;2.27;;;;;10.10;99367.00;;;;10522760;27;20196;-80
2023/03/31 03:05:33;;;;;;;11.17;2.17;;;;;10.10;99362.00;;;;10507677;27;20223;-80
2023/03/31 03:11:33;;;;;;;10.17;1.77;;;;;10.10;99335.00;;;;10424877;28;20195;-80
2023/03/31 03:16:41;;;;;;;6.80;2.10;;;;;10.10;99325.00;;;;10516114;28;20200;-80
2023/03/31 03:21:44;;;;;;;7.13;2.00;;;;;10.00;99319.00;;;;10551279;28;20204;-79
2023/03/31 03:26:47;;;;;;;10.33;2.77;;;;;9.90;99305.00;;;;10476187;28;20280;-78
2023/03/31 03:31:49;;;;;;;6.23;1.87;;;;;9.90;99275.00;;;;10489410;28;20185;-79
2023/03/31 03:36:51;;;;;;;14.00;2.73;;;;;9.80;99266.00;;;;10464870;28;20201;-80
2023/03/31 03:41:53;;;;;;;8.53;2.07;;;;;9.80;99271.00;;;;10519367;28;20249;-78
2023/03/31 03:46:55;;;;;;;13.17;2.40;;;;;9.80;99294.00;;;;10514636;28;20205;-79
2023/03/31 03:51:57;;;;;;;11.00;2.10;;;;;9.80;99262.00;;;;10504673;28;20192;-78
2023/03/31 03:56:59;;;;;;;11.20;3.17;;;;;9.80;99282.00;;;;10532332;28;20231;-78
2023/03/31 04:02:01;;;;;;;3.20;1.00;;;;;9.70;99256.00;;;;10505897;28;20641;-79
2023/03/31 04:07:04;;;;;;;3.60;0.80;;;;;9.50;99222.00;;;;10507893;28;20236;-79
2023/03/31 04:12:06;;;;;;;2.07;0.50;;;;;9.30;99217.00;;;;10464715;27;20200;-80
2023/03/31 04:17:09;;;;;;;1.70;0.67;;;;;9.20;99181.00;;;;10568619;27;20318;-79
2023/03/31 04:22:14;;;;;;;1.23;0.50;;;;;9.10;99175.00;;;;10516769;28;20206;-80
2023/03/31 04:27:16;;;;;;;3.47;0.70;;;;;9.10;99175.00;;;;10535356;28;20828;-79
2023/03/31 04:32:20;;;;;;;1.70;0.67;;;;;9.00;99164.00;;;;10518189;28;20231;-80
2023/03/31 04:37:27;;;;;;;3.30;0.80;;;;;9.00;99131.00;;;;10512852;28;20200;-80
2023/03/31 04:42:29;;;;;;;3.20;1.00;;;;;9.10;99114.00;;;;10499261;27;20359;-79
2023/03/31 04:47:31;;;;;;;2.33;1.00;;;;;9.20;99105.00;;;;10535510;28;20200;-80
2023/03/31 04:52:33;;;;;;;7.67;1.33;;;;;9.20;99104.00;;;;10527705;27;20595;-80
2023/03/31 04:57:36;;;;;;;9.43;1.77;;;;;9.40;99100.00;;;;10547983;27;20206;-80
2023/03/31 05:02:38;;;;;;;5.63;1.70;;;;;9.50;99079.00;;;;10517262;27;20207;-80
2023/03/31 05:07:40;;;;;;;9.33;1.97;;;;;9.70;99088.00;;;;10553441;28;20196;-80
2023/03/31 05:12:42;;;;;;;13.13;2.77;;;;;9.80;99063.00;;;;10536450;27;20227;-79
2023/03/31 05:17:44;;;;;;;9.70;2.87;;;;;9.80;99060.00;;;;10533134;28;20730;-80
2023/03/31 05:22:46;;;;;;;16.17;3.03;;;;;9.90;99050.00;;;;10535159;28;20219;-80
2023/03/31 05:27:48;;;;;;;10.37;2.30;;;;;9.90;99050.00;;;;10513135;28;20196;-79
2023/03/31 05:32:51;;;;;;;12.90;2.47;;;;;10.00;99051.00;;;;10523211;28;20189;-79
2023/03/31 05:37:53;;;;;;;8.90;2.03;;;;;10.00;99054.00;;;;10519627;28;20200;-79
2023/03/31 05:42:55;;;;;;;12.20;2.77;;;;;10.00;99041.00;;;;10541025;28;20256;-80
2023/03/31 05:47:57;;;;;;;11.63;2.50;;;;;10.00;99028.00;;;;10515983;28;20192;-79
2023/03/31 05:53:00;;;;;;;10.10;2.60;;;;;10.10;99032.00;;;;10513315;28;20196;-79
2023/03/31 05:58:02;;;;;;;14.00;2.73;;;;;10.10;99027.00;;;;10513433;27;20193;-79
2023/03/31 06:03:06;;;;;;;12.43;2.90;;;;;10.20;99028.00;;;;10496442;28;20638;-79
2023/03/31 06:08:08;;;;;;;9.60;2.60;;;;;10.30;99030.00;;;;10515888;28;20203;-80
2023/03/31 06:13:11;;;;;;;10.87;2.37;;;;;10.30;99036.00;;;;10528616;27;20205;-80
2023/03/31 06:18:13;;;;;;;13.00;3.03;;;;;10.40;99025.00;;;;10481374;28;20831;-81
2023/03/31 06:23:15;;;;;;;13.97;3.07;;;;;10.60;99026.00;;;;10503743;28;20219;-81
2023/03/31 06:28:18;;;;;;;14.37;3.17;;;;;10.80;99023.00;;;;10516083;28;20675;-81
2023/03/31 06:33:20;;;;;;;13.87;2.73;;;;;10.90;99023.00;;;;10499078;28;20193;-80
2023/03/31 06:38:23;;;;;;;16.97;3.40;;;;;11.00;99028.00;;;;10512759;27;20282;-81
2023/03/31 06:43:25;;;;;;;14.63;2.70;;;;;11.10;99002.00;;;;10514997;28;20226;-80
2023/03/31 06:48:27;;;;;;;14.83;2.57;;;;;11.30;98994.00;;;;10556399;27;20690;-81
2023/03/31 06:53:30;;;;;;;10.50;3.20;;;;;11.60;98990.00;;;;10539212;28;20192;-80
2023/03/31 06:58:32;;;;;;;12.77;3.10;;;;;11.90;98979.00;;;;10541471;27;20196;-81
2023/03/31 07:03:34;;;;;;;13.10;3.23;;;;;12.20;98980.00;;;;10527042;28;20899;-81
2023/03/31 07:08:36;;;;;;;14.97;3.20;;;;;12.20;98983.00;;;;10500875;28;20201;-80
2023/03/31 07:13:38;;;;;;;17.23;3.57;;;;;12.20;98969.00;;;;10516369;27;20197;-80
2023/03/31 07:18:40;;;;;;;14.70;3.00;;;;;12.10;98979.00;;;;10478171;28;20205;-79
2023/03/31 07:23:43;;;;;;;11.00;2.63;;;;;12.10;98986.00;;;;10501545;28;20239;-80
2023/03/31 07:28:45;;;;;;;17.37;3.50;;;;;12.20;98984.00;;;;10475303;28;20228;-80
2023/03/31 07:33:47;;;;;;;9.73;2.37;;;;;12.20;98969.00;;;;10484222;28;20205;-81
2023/03/31 07:38:49;;;;;;;14.53;2.70;;;;;12.30;98986.00;;;;10485867;27;20203;-81
2023/03/31 07:43:51;;;;;;;17.20;3.77;;;;;12.20;98980.00;;;;10538839;27;20275;-80
2023/03/31 07:48:55;;;;;;;13.13;3.30;;;;;11.90;98991.00;;;;10517963;28;20192;-79
2023/03/31 07:53:57;;;;;;;13.27;3.20;;;;;11.60;98984.00;;;;10503114;28;20200;-77
2023/03/31 07:59:00;;;;;;;15.70;5.17;;;;;11.50;98984.00;;;;10535336;27;20489;-79
2023/03/31 08:04:02;;;;;;;12.27;3.00;;;;;11.60;98991.00;;;;10472662;28;20217;-78
2023/03/31 08:09:06;;;;;;;18.00;4.27;;;;;11.70;98985.00;;;;10492160;28;20228;-78
2023/03/31 08:14:09;;;;;;;26.23;4.43;;;;;11.90;98976.00;;;;10546474;27;20203;-78
2023/03/31 08:19:11;;;;;;;14.73;4.03;;;;;12.20;98980.00;;;;10509766;28;20224;-78
2023/03/31 08:24:13;;;;;;;16.20;3.63;;;;;12.40;98963.00;;;;10488611;28;20213;-77
2023/03/31 08:29:15;;;;;;;15.63;3.73;;;;;12.80;98961.00;;;;10508679;28;20197;-77
2023/03/31 08:34:17;;;;;;;16.00;3.87;;;;;12.90;98964.00;;;;10513022;28;20203;-78
2023/03/31 08:39:19;;;;;;;14.67;3.13;;;;;13.10;98954.00;;;;10506029;28;20562;-78
2023/03/31 08:44:31;;;;;;;11.73;3.10;;;;;13.00;98959.00;;;;10494256;27;20273;-78
2023/03/31 08:49:44;;;;;;;11.77;3.17;;;;;12.80;98956.00;;;;10530752;27;20253;-78
2023/03/31 08:54:50;;;;;;;15.30;4.03;;;;;12.90;98943.00;;;;10485603;28;20192;-78
2023/03/31 08:59:57;;;;;;;12.40;2.93;;;;;13.70;98933.00;;;;10500201;27;20567;-79
2023/03/31 09:05:16;;;;;;;12.10;3.50;;;;;13.60;98934.00;;;;10489795;28;20231;-78
2023/03/31 09:10:34;;;;;;;13.30;3.17;;;;;13.40;98931.00;;;;10507378;28;20204;-78
2023/03/31 09:15:41;;;;;;;9.60;2.80;;;;;13.40;98932.00;;;;10489757;28;20203;-78
2023/03/31 09:20:47;;;;;;;12.30;2.70;;;;;13.40;98928.00;;;;10524973;28;20249;-78
2023/03/31 09:25:50;;;;;;;12.93;2.83;;;;;13.80;98911.00;;;;10503268;28;20215;-78
2023/03/31 09:30:54;;;;;;;16.67;3.67;;;;;14.50;98903.00;;;;10521223;27;20723;-78
2023/03/31 09:36:00;;;;;;;19.07;3.47;;;;;14.70;98892.00;;;;10544077;27;20196;-79
2023/03/31 09:41:04;;;;;;;15.20;3.20;;;;;14.60;98897.00;;;;10495924;27;20219;-79
2023/03/31 09:46:28;;;;;;;17.08;2.72;;;;;14.70;98875.00;;;;10476047;28;20215;-79
2023/03/31 09:51:36;;;;;;;19.80;4.37;;;;;15.00;98871.00;;;;10504828;28;20203;-78
2023/03/31 09:56:41;;;;;;;19.45;4.45;;;;;15.20;98868.00;;;;10506353;28;20192;-79
2023/03/31 10:01:45;;;;;;;19.00;4.28;;;;;15.00;98865.00;;;;10489584;28;20208;-79
2023/03/31 10:06:48;;;;;;;21.00;4.15;;;;;14.50;98860.00;;;;10473535;28;20571;-79
2023/03/31 10:12:05;;;;;;;12.67;3.87;;;;;14.60;98867.00;;;;10511158;28;20281;-79
2023/03/31 10:17:14;;;;;;;20.67;4.20;;;;;14.70;98867.00;;;;10513482;28;20674;-79
2023/03/31 10:22:20;;;;;;;23.40;4.60;;;;;14.90;98856.00;;;;10538850;28;20252;-79
2023/03/31 10:27:24;;;;;;;16.70;3.90;;;;;14.90;98859.00;;;;10540295;27;20214;-80
2023/03/31 10:32:27;;;;;;;19.30;4.50;;;;;14.40;98856.00;;;;10493165;28;20185;-79
2023/03/31 10:37:30;;;;;;;18.53;3.90;;;;;14.00;98861.00;;;;10483368;28;20324;-79
2023/03/31 10:42:32;;;;;;;16.17;3.60;;;;;14.40;98851.00;;;;10526879;27;20214;-80
2023/03/31 10:47:35;;;;;;;15.50;3.70;;;;;14.20;98855.00;;;;10484839;28;20216;-80
2023/03/31 10:52:43;;;;;;;13.80;3.27;;;;;14.20;98848.00;;;;10504141;28;20207;-79
2023/03/31 10:58:08;;;;;;;11.57;3.10;;;;;14.60;98837.00;;;;10524802;27;20196;-79
2023/03/31 11:03:48;;;;;;;23.07;4.20;;;;;14.90;98838.00;;;;10525763;27;20203;-80
2023/03/31 11:09:05;;;;;;;18.63;3.40;;;;;14.80;98851.00;;;;10495351;28;20633;-79
2023/03/31 11:14:27;;;;;;;14.60;3.30;;;;;14.50;98843.00;;;;10508681;28;20299;-77
2023/03/31 11:20:23;;;;;;;18.30;4.10;;;;;14.80;98847.00;;;;10534292;27;20204;-79
2023/03/31 11:25:38;;;;;;;10.27;2.70;;;;;15.30;98828.00;;;;10499111;27;20227;-79
2023/03/31 11:30:50;;;;;;;14.90;3.65;;;;;14.90;98810.00;;;;10518145;28;20227;-79
2023/03/31 11:36:06;;;;;;;15.15;3.83;;;;;15.20;98814.00;;;;10516223;27;20849;-80
2023/03/31 11:41:21;;;;;;;13.65;3.35;;;;;15.20;98799.00;;;;10548215;27;20312;-78
2023/03/31 11:46:29;;;;;;;12.70;2.75;;;;;15.80;98774.00;;;;10505380;28;20467;-79
2023/03/31 11:51:53;;;;;;;9.80;2.72;;;;;15.70;98772.00;;;;10523617;28;20193;-79
2023/03/31 11:56:55;;;;;;;7.10;2.88;;;;;15.00;98768.00;;;;10516760;27;20200;-80
2023/03/31 12:02:12;;;;;;;14.10;3.20;;;;;14.70;98775.00;;;;10501437;27;20185;-81
2023/03/31 12:07:23;;;;;;;10.75;2.63;;;;;14.80;98774.00;;;;10542187;27;20242;-80
2023/03/31 12:12:29;;;;;;;11.38;2.50;;;;;13.60;98796.00;;;;10497084;27;20200;-79
2023/03/31 12:17:31;;;;;;;9.30;2.60;;;;;12.90;98802.00;;;;10523414;28;20204;-79
2023/03/31 12:22:38;;;;;;;11.83;2.23;;;;;12.30;98812.00;;;;10501151;27;20258;-79
2023/03/31 12:27:42;;;;;;;13.97;2.70;;;;;12.00;98822.00;;;;10492596;27;20226;-79
2023/03/31 12:33:22;;;;;;;9.80;2.47;;;;;11.70;98820.00;;;;10505713;28;20581;-80
2023/03/31 12:38:49;;;;;;;10.17;2.87;;;;;12.50;98783.00;;;;10520580;28;20214;-81
2023/03/31 12:44:00;;;;;;;8.60;2.43;;;;;13.40;98768.00;;;;10511219;27;20582;-80
2023/03/31 12:49:33;;;;;;;8.67;1.97;;;;;14.00;98745.00;;;;10492091;27;20192;-79
2023/03/31 12:54:47;;;;;;;11.03;2.13;;;;;13.50;98754.00;;;;10513975;27;20196;-80
2023/03/31 13:00:16;;;;;;;5.93;1.57;;;;;13.20;98765.00;;;;10533029;27;20203;-80
2023/03/31 13:05:37;;;;;;;4.20;1.30;;;;;14.40;98749.00;;;;10529708;27;20219;-80
2023/03/31 13:10:55;;;;;;;7.33;1.63;;;;;14.70;98727.00;;;;10508606;27;20250;-82
2023/03/31 13:16:01;;;;;;;7.50;1.20;;;;;14.30;98704.00;;;;10550604;27;20203;-82
2023/03/31 13:21:06;;;;;;;4.10;0.93;;;;;13.70;98729.00;;;;10519326;28;20232;-82
2023/03/31 13:26:45;;;;;;;3.80;0.93;;;;;13.80;98736.00;;;;10509378;27;20216;-82
2023/03/31 13:32:00;;;;;;;3.87;0.93;;;;;14.20;98733.00;;;;10498359;28;20197;-83
2023/03/31 13:37:11;;;;;;;2.67;0.90;;;;;14.00;98742.00;;;;10502501;28;20234;-82
2023/03/31 13:42:32;;;;;;;5.03;1.00;;;;;13.40;98730.00;;;;10524081;27;20211;-81
2023/03/31 13:48:11;;;;;;;3.57;0.80;;;;;12.70;98727.00;;;;10506187;28;20722;-81
2023/03/31 13:53:50;;;;;;;4.70;1.00;;;;;12.00;98753.00;;;;10554391;28;20202;-79
2023/03/31 13:59:14;;;;;;;1.93;0.83;;;;;11.70;98746.00;;;;10572103;27;20380;-79
2023/03/31 14:04:35;;;;;;;1.53;0.77;;;;;11.70;98758.00;;;;10511221;28;20208;-79
2023/03/31 14:09:48;;;;;;;3.27;0.80;;;;;12.00;98750.00;;;;10496752;28;20201;-78
2023/03/31 14:14:53;;;;;;;1.87;0.70;;;;;12.30;98738.00;;;;10588536;27;20223;-79
2023/03/31 14:20:09;;;;;;;3.13;0.80;;;;;12.80;98727.00;;;;10504655;27;20830;-79
2023/03/31 14:25:23;;;;;;;2.07;0.97;;;;;13.50;98670.00;;;;10551629;28;20215;-79
2023/03/31 14:31:01;;;;;;;1.00;0.57;;;;;12.90;98704.00;;;;10518510;27;20207;-79
2023/03/31 14:36:09;;;;;;;1.83;0.60;;;;;13.10;98699.00;;;;10506385;28;20629;-79
2023/03/31 14:41:19;;;;;;;1.43;0.60;;;;;13.00;98701.00;;;;10537725;27;20224;-80
2023/03/31 14:46:22;;;;;;;1.23;0.50;;;;;12.60;98698.00;;;;10515194;28;20220;-80
2023/03/31 14:51:28;;;;;;;2.87;1.00;;;;;12.50;98683.00;;;;10501329;28;20206;-80
2023/03/31 14:56:36;;;;;;;1.50;0.73;;;;;12.60;98686.00;;;;10521896;28;20191;-82
2023/03/31 15:01:39;;;;;;;1.10;0.47;;;;;12.90;98677.00;;;;10501884;27;20247;-81
2023/03/31 15:06:44;;;;;;;6.00;1.03;;;;;12.70;98674.00;;;;10455786;27;20283;-83
2023/03/31 15:11:52;;;;;;;2.73;1.00;;;;;12.40;98698.00;;;;10533558;27;20200;-83
2023/03/31 15:16:54;;;;;;;2.17;0.83;;;;;12.30;98692.00;;;;10522288;27;20216;-84
2023/03/31 15:22:12;;;;;;;1.70;0.90;;;;;11.80;98705.00;;;;10514656;28;20299;-83
2023/03/31 15:27:24;;;;;;;6.23;0.83;;;;;12.50;98671.00;;;;10529194;28;20224;-80
2023/03/31 15:32:38;;;;;;;4.40;1.30;;;;;12.70;98681.00;;;;10516427;28;20188;-80
2023/03/31 15:37:42;;;;;;;5.03;0.80;;;;;12.60;98678.00;;;;10508424;28;20192;-82
2023/03/31 15:42:45;;;;;;;3.33;1.30;;;;;12.20;98673.00;;;;10540796;27;20676;-82
2023/03/31 15:48:15;;;;;;;1.77;0.77;;;;;11.90;98674.00;;;;10518499;28;20311;-82
2023/03/31 15:53:33;;;;;;;5.67;1.23;;;;;12.00;98682.00;;;;10511130;27;20238;-82
2023/03/31 15:58:56;;;;;;;4.10;1.10;;;;;11.90;98673.00;;;;10520696;28;20209;-81
2023/03/31 16:04:01;;;;;;;1.47;0.60;;;;;11.70;98671.00;;;;10505617;27;20227;-83
2023/03/31 16:09:38;;;;;;;3.77;1.00;;;;;11.50;98674.00;;;;10486896;28;20206;-83
2023/03/31 16:15:02;;;;;;;3.50;1.10;;;;;11.20;98682.00;;;;10522224;28;20208;-82
2023/03/31 16:20:09;;;;;;;3.47;1.07;;;;;10.90;98685.00;;;;10521602;27;21100;-83
2023/03/31 16:25:16;;;;;;;6.13;1.23;;;;;10.70;98691.00;;;;10526755;27;20300;-83
2023/03/31 16:30:21;;;;;;;7.40;1.73;;;;;10.70;98677.00;;;;10500758;28;20281;-82
2023/03/31 16:35:23;;;;;;;6.20;1.53;;;;;10.50;98687.00;;;;10497237;28;20250;-82
2023/03/31 16:40:26;;;;;;;7.47;1.67;;;;;10.50;98695.00;;;;10498521;28;20247;-82
2023/03/31 16:45:28;;;;;;;6.40;1.57;;;;;10.50;98689.00;;;;10502230;28;20228;-82
2023/03/31 16:50:30;;;;;;;5.57;1.30;;;;;10.50;98690.00;;;;10526201;28;20201;-81
2023/03/31 16:55:32;;;;;;;4.50;1.30;;;;;10.30;98685.00;;;;10519753;28;20873;-81
2023/03/31 17:00:35;;;;;;;8.70;1.87;;;;;10.20;98676.00;;;;10533628;28;20196;-81
2023/03/31 17:05:42;;;;;;;8.60;1.73;;;;;10.20;98681.00;;;;10536320;27;20428;-82
2023/03/31 17:10:58;;;;;;;9.70;1.43;;;;;10.10;98678.00;;;;10555253;28;20196;-80
2023/03/31 17:16:00;;;;;;;7.83;1.70;;;;;10.00;98681.00;;;;10544786;28;20812;-80
2023/03/31 17:21:20;;;;;;;5.83;1.33;;;;;10.00;98682.00;;;;10533137;27;20195;-81
2023/03/31 17:26:22;;;;;;;5.80;1.57;;;;;10.10;98694.00;;;;10523429;27;20227;-81
2023/03/31 17:31:25;;;;;;;10.93;1.90;;;;;10.10;98688.00;;;;10568820;27;20467;-82
2023/03/31 17:36:27;;;;;;;5.03;1.70;;;;;10.10;98685.00;;;;10524165;27;20201;-82
2023/03/31 17:41:30;;;;;;;4.60;1.50;;;;;10.00;98694.00;;;;10477959;28;20306;-82
2023/03/31 17:46:33;;;;;;;5.87;1.87;;;;;9.90;98700.00;;;;10499977;27;20215;-82
2023/03/31 17:51:35;;;;;;;7.97;1.93;;;;;9.90;98696.00;;;;10545148;27;20680;-81
2023/03/31 17:56:37;;;;;;;11.07;2.23;;;;;9.80;98683.00;;;;10532753;27;20214;-81
2023/03/31 18:01:39;;;;;;;11.10;2.27;;;;;9.70;98680.00;;;;10520289;27;20222;-82
2023/03/31 18:06:43;;;;;;;11.53;3.07;;;;;9.70;98697.00;;;;10506791;27;20213;-82
2023/03/31 18:11:46;;;;;;;9.10;2.70;;;;;9.60;98685.00;;;;10546525;27;20334;-82
2023/03/31 18:16:48;;;;;;;10.70;2.40;;;;;9.60;98701.00;;;;10560455;27;20196;-82
2023/03/31 18:21:50;;;;;;;11.17;2.70;;;;;9.60;98704.00;;;;10573020;27;20196;-81
2023/03/31 18:26:52;;;;;;;15.73;3.30;;;;;9.60;98720.00;;;;10488783;27;20315;-80
2023/03/31 18:31:54;;;;;;;9.73;3.13;;;;;9.60;98710.00;;;;10517171;27;20228;-79
2023/03/31 18:36:57;;;;;;;14.63;2.60;;;;;9.50;98710.00;;;;10515796;27;20208;-80
2023/03/31 18:41:59;;;;;;;12.90;2.53;;;;;9.50;98715.00;;;;10525134;27;20223;-80
2023/03/31 18:47:01;;;;;;;13.53;2.83;;;;;9.50;98723.00;;;;10536084;27;20548;-80
2023/03/31 18:52:04;;;;;;;8.73;2.67;;;;;9.50;98706.00;;;;10514968;27;20188;-79
2023/03/31 18:57:06;;;;;;;25.00;3.93;;;;;9.50;98714.00;;;;10528111;27;20200;-80
2023/03/31 19:02:16;;;;;;;7.77;2.60;;;;;9.50;98725.00;;;;10509345;27;20208;-80
2023/03/31 19:07:19;;;;;;;9.33;2.37;;;;;9.50;98716.00;;;;10505889;27;20805;-80
2023/03/31 19:12:21;;;;;;;10.70;2.63;;;;;9.50;98724.00;;;;10517421;27;20203;-80
2023/03/31 19:17:23;;;;;;;17.27;3.70;;;;;9.60;98717.00;;;;10522501;27;20213;-80
2023/03/31 19:22:26;;;;;;;30.17;3.77;;;;;9.60;98719.00;;;;10490881;27;20223;-83
2023/03/31 19:27:29;;;;;;;22.83;3.83;;;;;9.50;98735.00;;;;10500919;27;20223;-80
2023/03/31 19:32:31;;;;;;;13.50;2.90;;;;;9.50;98738.00;;;;10494136;27;20706;-81
2023/03/31 19:37:33;;;;;;;22.73;4.20;;;;;9.40;98738.00;;;;10503639;27;20700;-80
2023/03/31 19:42:37;;;;;;;15.33;3.17;;;;;9.40;98730.00;;;;10509812;27;20203;-83
2023/03/31 19:47:39;;;;;;;12.43;3.13;;;;;9.40;98729.00;;;;10506751;27;20215;-83
2023/03/31 19:52:44;;;;;;;18.23;3.53;;;;;9.40;98746.00;;;;10511757;27;20842;-82
2023/03/31 19:57:49;;;;;;;15.73;3.17;;;;;9.40;98730.00;;;;10513320;27;20205;-82
2023/03/31 20:02:51;;;;;;;17.03;3.13;;;;;9.40;98735.00;;;;10477516;27;20187;-82
2023/03/31 20:07:54;;;;;;;18.37;3.10;;;;;9.40;98719.00;;;;10519160;27;20216;-81
2023/03/31 20:12:56;;;;;;;11.17;2.80;;;;;9.40;98720.00;;;;10520004;27;20200;-82
2023/03/31 20:17:58;;;;;;;13.40;2.73;;;;;9.40;98732.00;;;;10496209;27;20196;-81
2023/03/31 20:23:02;;;;;;;10.47;2.87;;;;;9.40;98740.00;;;;10522776;27;20203;-81
2023/03/31 20:28:05;;;;;;;14.83;3.10;;;;;9.40;98721.00;;;;10498511;27;20208;-83
2023/03/31 20:33:07;;;;;;;13.70;3.27;;;;;9.30;98740.00;;;;10502457;27;20551;-81
2023/03/31 20:38:09;;;;;;;16.27;3.23;;;;;9.30;98729.00;;;;10530451;27;20185;-81
2023/03/31 20:43:12;;;;;;;15.23;2.67;;;;;9.30;98734.00;;;;10487101;27;20304;-82
2023/03/31 20:48:16;;;;;;;13.17;3.07;;;;;9.30;98738.00;;;;10525397;27;20219;-81
2023/03/31 20:53:18;;;;;;;6.70;1.80;;;;;9.30;98736.00;;;;10514580;27;20325;-81
2023/03/31 20:58:20;;;;;;;11.30;2.10;;;;;9.30;98745.00;;;;10542530;27;20291;-81
2023/03/31 21:03:22;;;;;;;9.03;2.27;;;;;9.30;98751.00;;;;10549227;27;20414;-80
2023/03/31 21:08:24;;;;;;;13.47;2.80;;;;;9.30;98752.00;;;;10498312;27;20215;-82
2023/03/31 21:13:28;;;;;;;10.80;2.83;;;;;9.30;98748.00;;;;10526001;27;20284;-80
2023/03/31 21:18:33;;;;;;;10.63;3.10;;;;;9.30;98755.00;;;;10472014;28;20316;-82
2023/03/31 21:23:35;;;;;;;16.30;2.70;;;;;9.30;98750.00;;;;10531587;27;20284;-82
2023/03/31 21:28:38;;;;;;;10.40;3.30;;;;;9.30;98756.00;;;;10537502;27;20638;-81
2023/03/31 21:33:42;;;;;;;14.27;3.40;;;;;9.30;98760.00;;;;10513923;27;20288;-81
2023/03/31 21:38:45;;;;;;;16.57;3.47;;;;;9.30;98755.00;;;;10500961;27;20204;-81
2023/03/31 21:43:49;;;;;;;15.70;3.43;;;;;9.30;98761.00;;;;10481753;27;20682;-81
2023/03/31 21:48:52;;;;;;;9.57;2.57;;;;;9.30;98758.00;;;;10498206;27;20570;-80
2023/03/31 21:53:55;;;;;;;20.80;3.20;;;;;9.30;98760.00;;;;10529442;27;20219;-81
2023/03/31 21:58:57;;;;;;;14.50;3.30;;;;;9.30;98768.00;;;;10499633;28;20208;-81
2023/03/31 22:03:59;;;;;;;14.57;3.20;;;;;9.30;98768.00;;;;10541452;28;20365;-82
2023/03/31 22:09:02;;;;;;;13.33;3.37;;;;;9.30;98762.00;;;;10562143;27;20302;-81
2023/03/31 22:14:05;;;;;;;14.53;3.20;;;;;9.30;98767.00;;;;10512785;27;20188;-81
2023/03/31 22:19:11;;;;;;;12.93;3.33;;;;;9.30;98770.00;;;;10535616;27;20195;-80
2023/03/31 22:24:13;;;;;;;16.53;3.43;;;;;9.20;98770.00;;;;10542622;28;20201;-80
2023/03/31 22:29:15;;;;;;;8.70;3.40;;;;;9.20;98780.00;;;;10511873;28;20271;-80
2023/03/31 22:34:20;;;;;;;14.77;3.97;;;;;9.20;98781.00;;;;10546767;28;20199;-81
2023/03/31 22:39:22;;;;;;;8.97;2.77;;;;;9.20;98783.00;;;;10546346;27;20233;-80
2023/03/31 22:44:24;;;;;;;14.40;2.50;;;;;9.20;98785.00;;;;10538686;27;20200;-80
2023/03/31 22:49:26;;;;;;;12.37;2.40;;;;;9.20;98798.00;;;;10547652;27;20268;-80
2023/03/31 22:54:28;;;;;;;8.73;2.40;;;;;9.20;98811.00;;;;10527354;27;20538;-79
2023/03/31 22:59:30;;;;;;;10.37;2.97;;;;;9.20;98801.00;;;;10571668;27;20208;-79
2023/03/31 23:04:32;;;;;;;9.33;2.73;;;;;9.20;98812.00;;;;10558761;27;20264;-80
2023/03/31 23:09:35;;;;;;;8.43;2.00;;;;;9.10;98803.00;;;;10572159;27;20253;-79
2023/03/31 23:14:37;;;;;;;10.93;2.60;;;;;9.10;98805.00;;;;10524072;27;20204;-80
2023/03/31 23:19:39;;;;;;;12.60;3.73;;;;;9.10;98809.00;;;;10543335;27;20197;-80
2023/03/31 23:24:41;;;;;;;12.97;2.97;;;;;9.10;98819.00;;;;10528062;28;20208;-81
2023/03/31 23:29:44;;;;;;;7.67;2.50;;;;;9.10;98819.00;;;;10528538;27;20684;-81
2023/03/31 23:34:47;;;;;;;10.87;3.20;;;;;9.10;98813.00;;;;10511612;28;20294;-80
2023/03/31 23:39:49;;;;;;;10.67;2.30;;;;;9.10;98818.00;;;;10561515;27;20502;-80
2023/03/31 23:44:51;;;;;;;8.70;2.20;;;;;9.10;98813.00;;;;10548934;27;20279;-80
2023/03/31 23:49:55;;;;;;;11.47;2.23;;;;;9.10;98818.00;;;;10521892;27;20231;-80
2023/03/31 23:54:57;;;;;;;6.00;2.10;;;;;9.10;98823.00;;;;10524642;27;20197;-81
2023/03/31 23:59:59;;;;;;;7.50;1.97;;;;;9.10;98813.00;;;;10526808;28;20462;-81
